Time;durP1;ratioP1;P1;durP2;ratioP2;P2;SDS_P1;SDS_P2;PMS_P1;PMS_P2;Temp;Humidity;BMP_temperature;BMP_pressure;BME280_temperature;BME280_humidity;BME280_pressure;Samples;Min_cycle;Max_cycle;Signal;HPM_P1;HPM_P2
2022/05/27 00:01:20;;;;;;;1.50;1.40;;;;;;;14.42;86.63;98750.50;5109897;28;20222;-69
2022/05/27 00:03:52;;;;;;;1.83;1.53;;;;;;;14.43;86.94;98752.19;5097707;28;20290;-68
2022/05/27 00:06:19;;;;;;;2.50;1.60;;;;;;;14.27;88.05;98746.34;5096164;28;20221;-68
2022/05/27 00:08:49;;;;;;;2.27;1.57;;;;;;;14.21;88.42;98748.59;5095914;28;20595;-69
2022/05/27 00:11:16;;;;;;;2.83;1.50;;;;;;;14.15;89.04;98749.88;5096684;28;20561;-69
2022/05/27 00:13:48;;;;;;;4.33;2.00;;;;;;;14.08;90.03;98755.75;5098295;28;20213;-70
2022/05/27 00:16:15;;;;;;;3.20;1.70;;;;;;;14.02;90.25;98754.41;5095885;28;20214;-69
2022/05/27 00:18:43;;;;;;;2.30;1.80;;;;;;;13.99;90.48;98743.16;5101436;28;20219;-69
2022/05/27 00:21:18;;;;;;;3.27;1.87;;;;;;;13.98;90.44;98741.41;5097200;28;20218;-69
2022/05/27 00:23:45;;;;;;;1.90;1.50;;;;;;;13.97;90.92;98740.59;5096619;28;20255;-69
2022/05/27 00:26:11;;;;;;;1.80;1.70;;;;;;;13.98;90.70;98736.09;5096459;28;20284;-69
2022/05/27 00:28:41;;;;;;;2.30;1.30;;;;;;;13.92;91.51;98736.56;5095335;28;20229;-71
2022/05/27 00:31:08;;;;;;;1.87;1.73;;;;;;;13.88;91.69;98732.44;5109652;28;20243;-69
2022/05/27 00:33:41;;;;;;;3.00;1.73;;;;;;;13.84;91.69;98733.63;5096369;28;20237;-69
2022/05/27 00:36:11;;;;;;;2.80;1.83;;;;;;;13.78;92.03;98718.97;5095914;28;20222;-69
2022/05/27 00:38:41;;;;;;;2.23;2.03;;;;;;;13.80;91.89;98724.16;5097051;28;20209;-68
2022/05/27 00:41:12;;;;;;;1.70;1.60;;;;;;;13.84;92.10;98718.53;5102412;28;20213;-68
2022/05/27 00:43:40;;;;;;;1.83;1.40;;;;;;;13.84;92.08;98729.16;5099477;28;20245;-68
2022/05/27 00:46:17;;;;;;;1.77;1.67;;;;;;;13.81;92.09;98725.88;5099637;28;20213;-68
2022/05/27 00:48:47;;;;;;;2.50;1.83;;;;;;;13.81;92.54;98725.88;5100950;28;20260;-69
2022/05/27 00:51:17;;;;;;;2.23;1.90;;;;;;;13.77;92.70;98717.28;5100263;28;20260;-69
2022/05/27 00:53:50;;;;;;;2.10;1.80;;;;;;;13.76;93.31;98720.06;5099386;28;20580;-68
2022/05/27 00:56:16;;;;;;;2.13;1.60;;;;;;;13.73;93.22;98714.94;5097736;28;20225;-68
2022/05/27 00:58:48;;;;;;;2.13;1.60;;;;;;;13.68;94.09;98706.50;5102981;28;20311;-68
2022/05/27 01:01:17;;;;;;;1.60;1.50;;;;;;;13.69;93.70;98708.19;5104698;28;20325;-69
2022/05/27 01:03:50;;;;;;;2.00;1.77;;;;;;;13.62;94.12;98701.63;5107197;28;20683;-68
2022/05/27 01:06:17;;;;;;;2.13;1.93;;;;;;;13.57;94.37;98706.41;5101464;28;20214;-68
2022/05/27 01:08:50;;;;;;;2.23;1.80;;;;;;;13.52;95.38;98701.41;5102852;28;20249;-69
2022/05/27 01:11:36;;;;;;;3.40;1.70;;;;;;;13.61;94.63;98705.22;5099772;28;20241;-69
2022/05/27 01:14:20;;;;;;;2.40;1.60;;;;;;;13.69;93.92;98708.19;5099130;28;20217;-70
2022/05/27 01:16:57;;;;;;;2.00;1.77;;;;;;;13.64;94.51;98708.47;5111338;28;20731;-70
2022/05/27 01:22:47;;;;;;;1.93;1.77;;;;;;;13.64;94.31;98710.31;5109022;28;20221;-70
2022/05/27 01:25:41;;;;;;;2.33;1.70;;;;;;;13.59;94.98;98712.44;5112418;28;20218;-69
2022/05/27 01:28:37;;;;;;;2.30;1.57;;;;;;;13.57;95.17;98709.06;5110591;28;20270;-69
2022/05/27 01:31:11;;;;;;;1.53;1.43;;;;;;;13.55;95.39;98705.66;5097974;28;20244;-69
2022/05/27 01:33:47;;;;;;;1.97;1.60;;;;;;;13.53;95.68;98708.44;5102287;28;20237;-70
2022/05/27 01:36:23;;;;;;;3.17;1.70;;;;;;;13.53;95.54;98707.56;5109442;28;20252;-70
2022/05/27 01:39:07;;;;;;;1.83;1.50;;;;;;;13.48;95.68;98707.06;5112557;28;20583;-70
2022/05/27 01:41:43;;;;;;;1.73;1.50;;;;;;;13.47;96.24;98708.03;5112049;28;20221;-70
2022/05/27 01:44:24;;;;;;;1.97;1.43;;;;;;;13.42;96.28;98700.38;5109661;28;20337;-69
2022/05/27 01:46:55;;;;;;;2.53;1.60;;;;;;;13.42;96.65;98704.84;5112278;28;20317;-69
2022/05/27 01:49:33;;;;;;;1.80;1.33;;;;;;;13.37;97.24;98704.31;5110452;28;20223;-69
2022/05/27 01:52:13;;;;;;;2.37;1.50;;;;;;;13.36;97.65;98702.63;5109097;28;20256;-69
2022/05/27 01:54:55;;;;;;;1.53;1.30;;;;;;;13.34;97.51;98707.19;5112486;28;20207;-69
2022/05/27 01:57:29;;;;;;;3.53;1.80;;;;;;;13.27;98.21;98701.47;5111739;28;20259;-69
2022/05/27 02:00:10;;;;;;;2.07;1.50;;;;;;;13.27;98.10;98695.31;5109636;28;20224;-69
2022/05/27 02:02:41;;;;;;;2.30;1.40;;;;;;;13.16;98.47;98693.44;5112377;28;20210;-69
2022/05/27 02:05:16;;;;;;;1.90;1.50;;;;;;;13.08;98.63;98695.75;5111979;28;20209;-69
2022/05/27 02:07:54;;;;;;;1.93;1.60;;;;;;;13.05;99.28;98689.81;5108924;28;20211;-70
2022/05/27 02:10:38;;;;;;;2.73;1.80;;;;;;;13.03;99.79;98694.41;5111679;28;20241;-70
2022/05/27 02:13:18;;;;;;;1.97;1.27;;;;;;;13.06;100.00;98695.03;5111794;28;20212;-69
2022/05/27 02:15:48;;;;;;;2.73;1.70;;;;;;;13.04;100.00;98688.13;5108250;28;20212;-69
2022/05/27 02:18:28;;;;;;;2.47;1.70;;;;;;;13.00;100.00;98689.28;5111250;28;20306;-69
2022/05/27 02:21:03;;;;;;;2.20;1.70;;;;;;;12.96;100.00;98690.47;5111665;28;20723;-69
2022/05/27 02:23:33;;;;;;;2.53;1.70;;;;;;;13.02;100.00;98687.41;5108700;28;20224;-68
2022/05/27 02:26:06;;;;;;;2.83;1.83;;;;;;;13.04;100.00;98696.09;5111444;28;20211;-69
2022/05/27 02:28:42;;;;;;;3.73;2.00;;;;;;;13.00;100.00;98678.69;5110942;28;20213;-69
2022/05/27 02:31:18;;;;;;;2.30;1.97;;;;;;;12.95;100.00;98684.31;5100215;28;20236;-69
2022/05/27 02:36:40;;;;;;;2.97;1.80;;;;;;;12.89;100.00;98678.56;5097181;28;20215;-69
2022/05/27 02:39:08;;;;;;;1.60;1.50;;;;;;;12.89;100.00;98667.97;5100649;28;20212;-70
2022/05/27 02:41:45;;;;;;;1.50;1.40;;;;;;;12.87;100.00;98664.53;5095585;28;20217;-69
2022/05/27 02:44:28;;;;;;;1.70;1.60;;;;;;;12.82;100.00;98667.53;5097034;28;20667;-69
2022/05/27 02:47:08;;;;;;;2.10;1.90;;;;;;;12.78;100.00;98659.91;5101974;28;20255;-69
2022/05/27 02:49:51;;;;;;;1.80;1.60;;;;;;;12.71;100.00;98663.94;5097326;28;20216;-69
2022/05/27 02:52:36;;;;;;;2.20;1.83;;;;;;;12.66;100.00;98660.75;5096397;28;20682;-69
2022/05/27 02:55:15;;;;;;;3.60;1.87;;;;;;;12.71;100.00;98669.25;5109264;28;20571;-69
2022/05/27 02:57:44;;;;;;;2.87;1.90;;;;;;;12.90;100.00;98667.81;5110969;28;20232;-69
2022/05/27 03:00:17;;;;;;;2.13;1.77;;;;;;;13.08;100.00;98669.22;5109588;28;20219;-70
2022/05/27 03:02:44;;;;;;;2.67;1.83;;;;;;;13.28;99.66;98670.47;5107211;28;20260;-69
2022/05/27 03:05:26;;;;;;;2.27;1.87;;;;;;;13.44;98.39;98665.78;5110539;28;20254;-69
2022/05/27 03:08:06;;;;;;;1.77;1.63;;;;;;;13.61;97.18;98657.41;5109152;28;20713;-69
2022/05/27 03:10:49;;;;;;;2.13;1.60;;;;;;;13.74;96.41;98661.72;5107535;28;20783;-69
2022/05/27 03:13:32;;;;;;;3.83;1.67;;;;;;;13.84;95.85;98656.56;5110330;28;20221;-71
2022/05/27 03:16:12;;;;;;;2.73;1.53;;;;;;;13.88;95.38;98658.03;5110474;28;20224;-69
2022/05/27 03:18:56;;;;;;;2.07;1.47;;;;;;;13.91;94.70;98666.63;5107908;28;20416;-68
2022/05/27 03:21:38;;;;;;;3.10;1.60;;;;;;;13.93;94.46;98664.69;5110499;28;20239;-69
2022/05/27 03:24:19;;;;;;;1.60;1.47;;;;;;;14.03;94.29;98662.19;5108885;28;20212;-71
2022/05/27 03:27:03;;;;;;;1.83;1.70;;;;;;;14.03;93.95;98648.91;5096517;28;20264;-70
2022/05/27 03:29:36;;;;;;;2.10;1.40;;;;;;;14.12;94.07;98662.38;5105092;28;20216;-69
2022/05/27 03:32:09;;;;;;;1.70;1.60;;;;;;;14.14;94.15;98659.59;5110234;28;20721;-70
2022/05/27 03:34:44;;;;;;;2.07;1.67;;;;;;;14.14;94.32;98663.13;5094484;28;20218;-69
2022/05/27 03:37:18;;;;;;;2.60;1.83;;;;;;;14.19;94.34;98662.78;5096168;28;20221;-69
2022/05/27 03:39:54;;;;;;;2.63;1.70;;;;;;;14.28;94.02;98668.25;5096728;28;20217;-70
2022/05/27 03:42:24;;;;;;;2.40;1.67;;;;;;;14.30;93.88;98668.16;5097227;28;20213;-70
2022/05/27 03:44:57;;;;;;;2.20;1.70;;;;;;;14.23;93.86;98653.63;5096351;28;20248;-69
2022/05/27 03:47:26;;;;;;;3.07;1.63;;;;;;;14.18;94.35;98653.09;5096267;28;20209;-70
2022/05/27 03:49:55;;;;;;;1.90;1.70;;;;;;;14.04;95.26;98669.22;5099715;28;20263;-70
2022/05/27 03:52:32;;;;;;;2.43;1.80;;;;;;;13.80;96.48;98657.75;5096189;28;20234;-70
2022/05/27 03:55:07;;;;;;;1.80;1.70;;;;;;;13.67;98.18;98673.75;5096042;28;20645;-69
2022/05/27 03:57:34;;;;;;;3.43;1.70;;;;;;;13.54;99.50;98680.06;5096585;28;20240;-69
2022/05/27 04:00:00;;;;;;;2.33;1.50;;;;;;;13.46;100.00;98677.94;5097152;28;20216;-70
2022/05/27 04:02:27;;;;;;;1.93;1.63;;;;;;;13.42;100.00;98683.59;5100892;28;20219;-70
2022/05/27 04:04:53;;;;;;;3.03;1.80;;;;;;;13.42;100.00;98679.16;5110001;28;20225;-69
2022/05/27 04:07:20;;;;;;;2.23;1.70;;;;;;;13.47;100.00;98686.78;5108565;28;20693;-70
2022/05/27 04:09:50;;;;;;;2.37;2.00;;;;;;;13.53;100.00;98681.03;5108028;28;20240;-69
2022/05/27 04:12:16;;;;;;;1.60;1.50;;;;;;;13.52;100.00;98679.34;5110225;28;20244;-70
2022/05/27 04:14:49;;;;;;;2.60;1.93;;;;;;;13.59;100.00;98676.13;5114041;28;20222;-69
2022/05/27 04:17:35;;;;;;;2.87;1.70;;;;;;;13.54;100.00;98680.91;5111808;28;20221;-70
2022/05/27 04:20:07;;;;;;;2.60;1.70;;;;;;;13.47;100.00;98670.84;5099763;28;20209;-70
2022/05/27 04:22:38;;;;;;;2.00;1.80;;;;;;;13.51;100.00;98672.31;5099966;28;20637;-69
2022/05/27 04:25:12;;;;;;;1.77;1.67;;;;;;;13.47;100.00;98670.84;5101272;28;20329;-69
2022/05/27 04:27:39;;;;;;;2.20;1.60;;;;;;;13.49;100.00;98675.09;5098743;28;20214;-69
2022/05/27 04:30:18;;;;;;;1.67;1.57;;;;;;;13.52;100.00;98679.34;5106762;28;20621;-70
2022/05/27 04:32:53;;;;;;;4.60;1.80;;;;;;;13.58;100.00;98674.41;5103811;28;20304;-69
2022/05/27 04:35:27;;;;;;;2.30;1.60;;;;;;;13.64;100.00;98675.78;5111766;28;20213;-69
2022/05/27 04:37:57;;;;;;;2.13;1.60;;;;;;;13.63;100.00;98677.56;5113629;28;20209;-69
2022/05/27 04:40:25;;;;;;;2.73;1.93;;;;;;;13.61;100.00;98678.66;5113307;28;20254;-69
2022/05/27 04:42:51;;;;;;;1.73;1.63;;;;;;;13.68;100.00;98675.44;5111160;28;20558;-69
2022/05/27 04:45:19;;;;;;;3.13;1.70;;;;;;;13.76;99.87;98680.19;5112791;28;20573;-69
2022/05/27 04:47:46;;;;;;;2.07;1.83;;;;;;;13.75;99.86;98675.84;5113536;28;20307;-69
2022/05/27 04:50:12;;;;;;;3.73;2.00;;;;;;;13.80;99.36;98671.88;5113482;28;20266;-70
2022/05/27 04:52:42;;;;;;;2.07;1.87;;;;;;;13.91;98.76;98676.41;5111238;28;20240;-70
2022/05/27 04:55:12;;;;;;;3.70;1.93;;;;;;;14.31;96.43;98669.84;5110980;28;20578;-69
2022/05/27 04:57:44;;;;;;;1.70;1.60;;;;;;;14.70;93.38;98669.44;5112320;28;20678;-69
2022/05/27 05:00:17;;;;;;;2.67;1.90;;;;;;;14.96;91.35;98668.28;5113210;28;20621;-69
2022/05/27 05:02:49;;;;;;;2.00;1.60;;;;;;;15.10;91.00;98679.53;5110061;28;20611;-69
2022/05/27 05:05:18;;;;;;;1.60;1.50;;;;;;;15.23;90.12;98688.28;5113270;28;20214;-69
2022/05/27 05:07:55;;;;;;;2.13;1.80;;;;;;;15.34;89.85;98680.28;5113096;28;20310;-69
2022/05/27 05:10:23;;;;;;;3.13;1.83;;;;;;;15.49;89.54;98692.38;5111134;28;20220;-69
2022/05/27 05:12:54;;;;;;;2.83;2.10;;;;;;;15.59;89.02;98695.16;5112029;28;20286;-69
2022/05/27 05:15:26;;;;;;;2.30;1.67;;;;;;;15.65;89.05;98700.00;5113064;28;20207;-69
2022/05/27 05:18:01;;;;;;;2.07;1.80;;;;;;;15.67;89.16;98698.91;5113763;28;20675;-69
2022/05/27 05:20:32;;;;;;;3.20;2.07;;;;;;;15.69;89.54;98685.44;5110006;28;20305;-68
2022/05/27 05:23:02;;;;;;;3.37;2.00;;;;;;;15.79;89.76;98695.25;5111732;28;20229;-69
2022/05/27 05:25:28;;;;;;;2.73;2.03;;;;;;;15.83;91.10;98698.50;5112306;28;20218;-69
2022/05/27 05:27:57;;;;;;;3.30;2.20;;;;;;;15.85;90.27;98704.56;5111514;28;20214;-69
2022/05/27 05:30:29;;;;;;;2.67;2.00;;;;;;;15.88;90.65;98701.66;5100947;28;20236;-68
2022/05/27 05:32:56;;;;;;;2.20;2.00;;;;;;;15.92;90.56;98698.59;5098451;28;20219;-69
2022/05/27 05:35:25;;;;;;;2.53;1.90;;;;;;;15.94;89.77;98706.50;5098646;28;20213;-69
2022/05/27 05:38:00;;;;;;;2.67;1.90;;;;;;;15.95;89.05;98714.34;5098895;28;20211;-69
2022/05/27 05:40:33;;;;;;;3.27;2.27;;;;;;;15.98;87.77;98710.56;5098601;28;20263;-69
2022/05/27 05:43:04;;;;;;;2.83;2.10;;;;;;;15.95;88.23;98705.50;5098229;28;20211;-69
2022/05/27 05:45:30;;;;;;;3.20;2.10;;;;;;;15.98;88.23;98707.91;5098325;28;20216;-69
2022/05/27 05:47:57;;;;;;;2.77;2.33;;;;;;;15.99;88.29;98713.13;5107142;28;20210;-69
2022/05/27 05:50:24;;;;;;;3.87;2.83;;;;;;;15.96;87.96;98704.53;5112342;28;20311;-69
2022/05/27 05:52:56;;;;;;;3.27;2.53;;;;;;;16.01;87.80;98707.69;5112120;28;20287;-70
2022/05/27 05:55:26;;;;;;;2.50;2.20;;;;;;;15.98;87.96;98710.56;5111877;28;20236;-69
2022/05/27 05:57:56;;;;;;;5.00;2.77;;;;;;;16.04;87.57;98714.44;5109492;28;20218;-70
2022/05/27 06:00:32;;;;;;;3.50;2.40;;;;;;;16.02;87.96;98710.19;5112232;28;20218;-69
2022/05/27 06:02:59;;;;;;;3.40;2.77;;;;;;;16.00;88.64;98704.16;5112081;28;20221;-69
2022/05/27 06:05:28;;;;;;;2.53;2.13;;;;;;;15.98;88.82;98709.59;5109914;28;20214;-69
2022/05/27 06:07:56;;;;;;;3.90;2.77;;;;;;;16.04;88.71;98714.44;5111262;28;20228;-69
2022/05/27 06:10:23;;;;;;;3.03;2.67;;;;;;;16.03;88.87;98704.75;5111880;28;20206;-70
2022/05/27 06:12:52;;;;;;;4.23;2.53;;;;;;;16.09;88.93;98712.25;5111787;28;20240;-69
2022/05/27 06:15:19;;;;;;;3.17;2.60;;;;;;;16.10;89.25;98713.09;5107220;28;20218;-69
2022/05/27 06:17:47;;;;;;;4.07;2.50;;;;;;;16.14;89.34;98714.50;5110786;28;20233;-69
2022/05/27 06:20:14;;;;;;;3.50;2.40;;;;;;;16.18;89.06;98711.50;5111566;28;20241;-69
2022/05/27 06:22:40;;;;;;;4.07;2.53;;;;;;;16.20;88.38;98714.00;5111504;28;20249;-69
2022/05/27 06:25:15;;;;;;;2.63;2.43;;;;;;;16.22;88.71;98715.59;5109140;28;20571;-69
2022/05/27 06:27:49;;;;;;;3.77;3.03;;;;;;;16.22;89.35;98704.91;5097870;28;20218;-69
2022/05/27 06:35:53;;;;;;;3.77;2.60;;;;;;;16.36;88.08;98719.78;5096368;28;20218;-68
2022/05/27 06:38:22;;;;;;;3.33;2.70;;;;;;;16.38;86.71;98717.84;5097051;28;20215;-69
2022/05/27 06:40:51;;;;;;;3.67;2.70;;;;;;;16.32;86.74;98724.53;5097440;28;20223;-69
2022/05/27 06:43:22;;;;;;;3.27;2.53;;;;;;;16.25;87.29;98722.50;5098112;28;20246;-69
2022/05/27 06:45:53;;;;;;;3.80;2.40;;;;;;;16.14;88.23;98720.72;5097458;28;20701;-68
2022/05/27 06:48:21;;;;;;;3.77;3.00;;;;;;;16.17;87.22;98722.28;5097355;28;20246;-69
2022/05/27 06:50:47;;;;;;;4.33;2.87;;;;;;;16.18;86.85;98724.84;5100183;28;20232;-69
2022/05/27 06:53:16;;;;;;;2.90;2.50;;;;;;;16.22;87.22;98728.91;5097167;28;20238;-69
2022/05/27 06:55:47;;;;;;;3.13;2.23;;;;;;;16.16;87.64;98723.25;5097383;28;20233;-67
2022/05/27 06:58:21;;;;;;;3.50;1.90;;;;;;;16.22;87.37;98728.91;5097245;28;20221;-69
2022/05/27 07:00:58;;;;;;;3.70;2.60;;;;;;;16.26;87.21;98725.03;5108161;28;20222;-68
2022/05/27 07:03:29;;;;;;;6.30;2.90;;;;;;;16.30;86.54;98725.63;5110666;28;20212;-69
2022/05/27 07:05:57;;;;;;;5.40;2.77;;;;;;;16.38;85.58;98729.38;5110644;28;20217;-69
2022/05/27 07:08:24;;;;;;;2.87;2.23;;;;;;;16.53;83.68;98716.59;5106677;28;20305;-68
2022/05/27 07:10:50;;;;;;;2.80;2.40;;;;;;;16.54;83.77;98716.47;5109766;28;20217;-68
2022/05/27 07:13:18;;;;;;;2.57;2.23;;;;;;;16.52;83.76;98715.72;5110426;28;20241;-69
2022/05/27 07:15:44;;;;;;;3.97;2.40;;;;;;;16.46;83.59;98716.25;5108257;28;20295;-69
2022/05/27 07:18:11;;;;;;;2.40;2.20;;;;;;;16.59;83.89;98721.41;5107055;28;20629;-69
2022/05/27 07:20:40;;;;;;;2.67;1.83;;;;;;;16.73;83.74;98727.28;5108636;28;20221;-69
2022/05/27 07:23:07;;;;;;;2.70;2.50;;;;;;;16.80;82.46;98731.13;5109925;28;20754;-69
2022/05/27 07:25:37;;;;;;;3.53;2.50;;;;;;;16.82;81.53;98726.50;5104385;28;20205;-69
2022/05/27 07:28:06;;;;;;;4.23;2.57;;;;;;;16.65;82.25;98732.41;5099094;28;20217;-68
2022/05/27 07:30:33;;;;;;;3.20;2.03;;;;;;;16.62;83.23;98716.66;5104614;28;20206;-69
2022/05/27 07:33:00;;;;;;;2.80;2.00;;;;;;;16.70;83.26;98722.19;5110293;28;20237;-69
2022/05/27 07:35:27;;;;;;;2.60;2.13;;;;;;;16.86;82.45;98724.41;5106352;28;20215;-70
2022/05/27 07:37:54;;;;;;;2.37;2.00;;;;;;;17.03;81.12;98723.81;5110958;28;20214;-69
2022/05/27 07:40:21;;;;;;;3.00;2.10;;;;;;;17.18;81.71;98720.66;5110718;28;20212;-69
2022/05/27 07:42:48;;;;;;;3.03;2.00;;;;;;;17.29;80.66;98723.25;5110853;28;20214;-69
2022/05/27 07:45:17;;;;;;;2.87;2.00;;;;;;;17.38;79.77;98719.81;5108350;28;20235;-69
2022/05/27 07:47:44;;;;;;;3.70;2.20;;;;;;;17.35;79.34;98727.22;5110093;28;20221;-69
2022/05/27 07:50:13;;;;;;;2.77;2.13;;;;;;;17.38;79.25;98733.16;5110936;28;20209;-69
2022/05/27 07:52:42;;;;;;;2.10;1.90;;;;;;;17.46;79.32;98730.69;5110842;28;20320;-69
2022/05/27 07:55:10;;;;;;;3.47;2.20;;;;;;;17.48;79.51;98728.72;5099963;28;20267;-70
2022/05/27 07:57:41;;;;;;;4.37;2.13;;;;;;;17.56;78.63;98715.53;5099375;28;20228;-70
2022/05/27 08:00:11;;;;;;;3.87;2.10;;;;;;;17.56;78.81;98726.22;5097025;28;20210;-70
2022/05/27 08:02:37;;;;;;;2.70;2.20;;;;;;;17.56;78.46;98722.72;5099631;28;20211;-70
2022/05/27 08:05:04;;;;;;;4.67;2.10;;;;;;;17.42;78.61;98720.38;5102225;28;20214;-70
2022/05/27 08:07:31;;;;;;;3.23;2.03;;;;;;;17.38;79.33;98733.16;5098569;28;20215;-70
2022/05/27 08:09:57;;;;;;;3.63;2.03;;;;;;;17.36;79.91;98735.09;5098376;28;20211;-70
2022/05/27 08:12:25;;;;;;;3.07;1.93;;;;;;;17.32;80.09;98731.00;5098336;28;20234;-70
2022/05/27 08:14:52;;;;;;;3.17;2.07;;;;;;;17.23;80.24;98734.47;5102311;28;20213;-71
2022/05/27 08:17:18;;;;;;;3.07;2.27;;;;;;;17.14;80.69;98729.91;5099422;28;20211;-71
2022/05/27 08:19:45;;;;;;;4.13;2.23;;;;;;;17.12;81.37;98731.88;5094907;28;20588;-72
2022/05/27 08:22:11;;;;;;;2.20;1.70;;;;;;;17.16;80.99;98733.31;5096986;28;20215;-71
2022/05/27 08:24:38;;;;;;;4.70;2.88;;;;;;;17.14;81.53;98734.44;5089485;28;20425;-69
2022/05/27 08:27:05;;;;;;;3.27;2.10;;;;;;;17.32;80.82;98736.34;5106555;28;20211;-74
2022/05/27 08:29:33;;;;;;;3.67;1.80;;;;;;;17.43;80.15;98732.78;5105024;28;20212;-75
2022/05/27 08:32:03;;;;;;;3.83;2.37;;;;;;;17.50;79.03;98733.94;5103312;28;20230;-75
2022/05/27 08:39:58;;;;;;;2.60;2.40;;;;;;;17.56;78.09;98738.75;5100571;28;20217;-70
2022/05/27 08:42:36;;;;;;;2.20;2.00;;;;;;;17.57;77.80;98733.28;5100892;28;20242;-70
2022/05/27 08:45:12;;;;;;;2.77;2.27;;;;;;;17.54;78.86;98740.69;5103040;28;20300;-70
2022/05/27 08:47:43;;;;;;;2.60;2.00;;;;;;;17.70;78.14;98752.59;5096721;28;20221;-70
2022/05/27 08:50:13;;;;;;;2.97;2.00;;;;;;;17.80;76.79;98740.09;5096248;28;20217;-70
2022/05/27 08:52:44;;;;;;;3.23;2.20;;;;;;;17.75;77.06;98752.19;5099513;28;20242;-70
2022/05/27 09:01:02;;;;;;;2.47;2.13;;;;;;;17.76;75.60;98748.53;5107224;28;20214;-71
2022/05/27 09:03:34;;;;;;;3.30;1.83;;;;;;;18.26;74.96;98752.88;5108280;28;20213;-69
2022/05/27 09:06:05;;;;;;;3.13;1.90;;;;;;;18.88;73.00;98746.16;5108821;28;20217;-68
2022/05/27 09:08:31;;;;;;;3.50;2.17;;;;;;;19.32;69.23;98737.47;5104636;28;20219;-68
2022/05/27 09:11:07;;;;;;;2.73;2.00;;;;;;;19.47;67.33;98736.03;5106548;28;20660;-70
2022/05/27 09:13:39;;;;;;;2.57;2.37;;;;;;;19.63;66.88;98738.91;5108827;28;20233;-69
2022/05/27 09:16:16;;;;;;;2.63;2.10;;;;;;;19.85;65.70;98740.38;5107672;28;20225;-69
2022/05/27 09:18:57;;;;;;;2.73;2.20;;;;;;;20.11;64.23;98734.19;5104722;28;20229;-69
2022/05/27 09:21:31;;;;;;;3.07;1.90;;;;;;;20.07;62.81;98740.00;5107245;28;20210;-69
2022/05/27 09:24:13;;;;;;;2.43;2.20;;;;;;;20.01;63.86;98728.00;5107580;28;20217;-69
2022/05/27 09:26:44;;;;;;;2.57;1.93;;;;;;;20.15;63.44;98730.22;5105981;28;20222;-69
2022/05/27 09:29:32;;;;;;;2.77;2.23;;;;;;;20.04;62.86;98732.22;5105972;28;20278;-69
2022/05/27 09:32:06;;;;;;;3.70;2.10;;;;;;;19.98;63.10;98730.97;5100221;28;20209;-69
2022/05/27 09:34:36;;;;;;;4.37;2.00;;;;;;;20.04;63.90;98735.75;5106497;28;20209;-70
2022/05/27 09:37:08;;;;;;;2.10;1.90;;;;;;;19.88;63.30;98730.19;5101002;28;20219;-68
2022/05/27 09:39:35;;;;;;;3.70;1.80;;;;;;;19.64;63.02;98735.22;5100849;28;20212;-69
2022/05/27 09:42:13;;;;;;;2.00;1.80;;;;;;;19.34;64.71;98727.47;5105553;28;20210;-68
2022/05/27 09:44:48;;;;;;;3.40;2.00;;;;;;;18.95;65.36;98725.84;5105530;28;20247;-68
2022/05/27 09:47:17;;;;;;;2.60;2.17;;;;;;;18.87;67.32;98728.41;5097626;28;20217;-68
2022/05/27 09:49:44;;;;;;;2.07;1.87;;;;;;;18.83;66.54;98726.16;5098504;28;20267;-69
2022/05/27 09:52:10;;;;;;;2.93;2.10;;;;;;;18.77;66.15;98727.53;5102507;28;20312;-69
2022/05/27 09:54:43;;;;;;;2.77;2.00;;;;;;;18.91;65.15;98721.75;5098022;28;20289;-69
2022/05/27 09:57:22;;;;;;;2.60;1.90;;;;;;;19.27;63.39;98723.66;5097616;28;20289;-71
2022/05/27 09:59:53;;;;;;;2.53;1.70;;;;;;;19.57;62.72;98712.69;5101769;28;20211;-71
2022/05/27 10:02:27;;;;;;;3.33;1.90;;;;;;;19.68;62.52;98715.19;5109894;28;20677;-70
2022/05/27 10:04:57;;;;;;;4.03;2.00;;;;;;;19.82;61.90;98716.53;5110544;28;20215;-71
2022/05/27 10:07:27;;;;;;;2.00;1.70;;;;;;;19.94;61.39;98708.13;5109310;28;20225;-70
2022/05/27 10:09:53;;;;;;;1.70;1.57;;;;;;;20.02;61.69;98697.50;5106954;28;20215;-71
2022/05/27 10:12:29;;;;;;;2.10;1.90;;;;;;;20.13;62.12;98701.81;5110295;28;20240;-70
2022/05/27 10:14:55;;;;;;;2.53;2.07;;;;;;;20.16;61.99;98706.88;5108058;28;20213;-69
2022/05/27 10:17:36;;;;;;;2.20;2.00;;;;;;;20.00;62.83;98699.47;5099071;28;20210;-69
2022/05/27 10:20:38;;;;;;;;;;;;;;;;;;;;;
2022/05/27 10:23:10;;;;;;;1.80;1.70;;;;;;;20.19;61.81;98701.22;5100147;28;20218;-69
2022/05/27 10:25:44;;;;;;;2.70;1.80;;;;;;;20.46;59.47;98685.88;5102659;28;20214;-69
2022/05/27 10:28:22;;;;;;;2.13;1.90;;;;;;;20.79;57.36;98684.31;5098464;28;20238;-68
2022/05/27 10:30:53;;;;;;;3.17;1.70;;;;;;;21.15;57.01;98683.28;5104332;28;20216;-69
2022/05/27 10:33:23;;;;;;;2.00;1.80;;;;;;;21.64;56.52;98675.28;5108042;28;20331;-68
2022/05/27 10:35:52;;;;;;;1.87;1.77;;;;;;;21.67;54.92;98676.84;5100659;28;20217;-70
2022/05/27 10:38:34;;;;;;;2.37;1.63;;;;;;;21.37;54.65;98667.44;5110338;28;20220;-70
2022/05/27 10:41:07;;;;;;;1.70;1.60;;;;;;;20.88;56.59;98676.19;5099095;28;20743;-69
2022/05/27 10:43:46;;;;;;;2.60;1.73;;;;;;;20.54;57.93;98677.88;5099151;28;20709;-69
2022/05/27 10:46:18;;;;;;;1.50;1.40;;;;;;;20.35;59.61;98677.22;5099135;28;20215;-70
2022/05/27 10:49:11;;;;;;;1.40;1.30;;;;;;;20.09;58.46;98671.75;5102013;28;20584;-69
2022/05/27 10:51:49;;;;;;;1.63;1.53;;;;;;;20.04;58.95;98675.84;5100279;28;20214;-70
2022/05/27 10:54:34;;;;;;;1.67;1.40;;;;;;;20.03;58.44;98668.81;5109827;28;20649;-68
2022/05/27 11:03:14;;;;;;;3.07;2.30;;;;;;;20.12;59.32;98678.66;5107070;28;20255;-70
2022/05/27 11:05:56;;;;;;;2.00;1.77;;;;;;;20.35;59.28;98671.88;5102631;28;20210;-69
2022/05/27 11:08:26;;;;;;;2.37;1.80;;;;;;;20.54;60.14;98664.47;5108337;28;20244;-70
2022/05/27 11:11:04;;;;;;;2.47;2.13;;;;;;;20.51;59.26;98656.72;5107255;28;20223;-69
2022/05/27 11:16:56;;;;;;;2.80;1.80;;;;;;;21.06;55.60;98652.81;5100198;28;20250;-69
2022/05/27 11:19:49;;;;;;;1.90;1.77;;;;;;;21.44;55.80;98649.63;5102175;28;20212;-68
2022/05/27 11:22:27;;;;;;;1.60;1.50;;;;;;;21.72;54.07;98656.53;5105661;28;20213;-69
2022/05/27 11:25:13;;;;;;;2.30;1.67;;;;;;;22.03;53.23;98641.47;5109106;28;20222;-69
2022/05/27 11:27:51;;;;;;;2.73;1.50;;;;;;;22.20;54.11;98645.84;5109610;28;20218;-69
2022/05/27 11:30:30;;;;;;;2.93;1.33;;;;;;;22.37;53.09;98633.28;5104305;28;20211;-69
2022/05/27 11:33:09;;;;;;;2.67;1.63;;;;;;;22.35;51.70;98632.56;5105087;28;20237;-69
2022/05/27 11:36:12;;;;;;;1.50;1.40;;;;;;;22.18;51.50;98628.19;5107896;28;20253;-70
2022/05/27 11:38:58;;;;;;;1.67;1.57;;;;;;;22.12;51.93;98631.56;5080134;28;20217;-69
2022/05/27 11:41:29;;;;;;;2.23;1.50;;;;;;;21.83;51.32;98620.38;5109388;28;20213;-70
2022/05/27 11:44:09;;;;;;;2.63;1.37;;;;;;;21.73;52.41;98620.53;5098622;28;20721;-69
2022/05/27 11:47:07;;;;;;;2.13;1.40;;;;;;;21.51;52.05;98610.31;5098453;28;20214;-69
2022/05/27 11:49:42;;;;;;;2.50;1.23;;;;;;;21.53;53.04;98616.38;5096986;28;20217;-70
2022/05/27 11:52:34;;;;;;;2.07;1.23;;;;;;;21.69;52.07;98608.41;5101262;28;20220;-69
2022/05/27 11:55:33;;;;;;;1.90;1.17;;;;;;;21.91;52.46;98605.09;5086988;28;20210;-69
2022/05/27 11:58:10;;;;;;;1.50;1.40;;;;;;;22.05;49.84;98609.84;5096980;28;20218;-68
2022/05/27 12:00:42;;;;;;;1.40;1.30;;;;;;;22.24;50.61;98603.31;5109559;28;20228;-70
2022/05/27 12:03:14;;;;;;;1.90;1.50;;;;;;;22.48;50.59;98588.00;5107269;28;20213;-69
2022/05/27 12:05:46;;;;;;;1.83;1.50;;;;;;;22.67;49.17;98597.59;5107580;28;20216;-70
2022/05/27 12:08:24;;;;;;;1.30;1.20;;;;;;;22.67;48.48;98587.63;5108763;28;20254;-70
2022/05/27 12:10:55;;;;;;;1.30;1.20;;;;;;;22.97;49.18;98589.59;5109437;28;20209;-70
2022/05/27 12:13:27;;;;;;;1.23;1.13;;;;;;;23.24;47.79;98594.63;5109012;28;20230;-69
2022/05/27 12:15:59;;;;;;;1.47;0.93;;;;;;;23.14;47.41;98583.16;5107239;28;20233;-69
2022/05/27 12:18:32;;;;;;;1.07;0.93;;;;;;;23.19;48.39;98588.06;5108819;28;20675;-70
2022/05/27 12:21:01;;;;;;;1.70;0.97;;;;;;;23.11;46.78;98588.06;5108701;28;20683;-70
2022/05/27 12:23:30;;;;;;;1.33;1.23;;;;;;;22.95;47.22;98575.47;5107033;28;20716;-70
2022/05/27 12:26:01;;;;;;;1.77;1.23;;;;;;;22.55;49.78;98580.09;5108941;28;20582;-70
2022/05/27 12:28:32;;;;;;;2.17;1.20;;;;;;;22.35;50.38;98571.47;5108137;28;20217;-69
2022/05/27 12:31:01;;;;;;;2.50;1.30;;;;;;;22.15;49.84;98570.13;5107806;28;20221;-69
2022/05/27 12:33:30;;;;;;;2.70;1.10;;;;;;;22.04;50.03;98583.91;5106707;28;20245;-70